createdAt,value
2019-03-11T00:01:22.961Z,23.00
2019-03-11T00:03:52.613Z,24.07
2019-03-11T00:06:22.244Z,24.50
2019-03-11T00:08:51.949Z,27.47
2019-03-11T00:11:21.573Z,35.33
2019-03-11T00:13:51.206Z,39.97
2019-03-11T00:16:20.798Z,30.07
2019-03-11T00:18:50.369Z,25.47
2019-03-11T00:21:19.950Z,25.40
2019-03-11T00:23:49.580Z,27.03
2019-03-11T00:26:19.249Z,23.87
2019-03-11T00:28:48.880Z,22.30
2019-03-11T00:31:18.481Z,21.10
2019-03-11T00:33:48.089Z,18.93
2019-03-11T00:36:17.720Z,22.07
2019-03-11T00:38:47.343Z,21.67
2019-03-11T00:41:16.916Z,21.23
2019-03-11T00:43:46.481Z,19.77
2019-03-11T00:46:16.097Z,13.97
2019-03-11T00:48:45.778Z,19.30
2019-03-11T00:51:15.377Z,13.67
2019-03-11T00:53:44.951Z,16.73
2019-03-11T00:56:14.601Z,18.57
2019-03-11T00:58:44.207Z,21.60
2019-03-11T01:01:13.837Z,21.73
2019-03-11T01:03:43.475Z,30.13
2019-03-11T01:06:13.048Z,32.60
2019-03-11T01:08:42.633Z,28.57
2019-03-11T01:11:12.322Z,29.87
2019-03-11T01:13:41.918Z,27.07
2019-03-11T01:16:11.543Z,29.60
2019-03-11T01:18:41.115Z,30.53
2019-03-11T01:21:10.781Z,27.13
2019-03-11T01:23:40.421Z,34.23
2019-03-11T01:26:10.007Z,29.87
2019-03-11T01:28:39.711Z,28.53
2019-03-11T01:31:09.295Z,27.00
2019-03-11T01:33:38.889Z,24.50
2019-03-11T01:36:08.466Z,21.97
2019-03-11T01:38:38.044Z,15.60
2019-03-11T01:41:07.659Z,16.70
2019-03-11T01:43:37.240Z,11.07
2019-03-11T01:46:06.853Z,9.10
2019-03-11T01:48:36.445Z,5.47
2019-03-11T01:51:06.056Z,19.80
2019-03-11T01:53:35.759Z,25.10
2019-03-11T01:56:05.375Z,22.43
2019-03-11T01:58:34.974Z,23.30
2019-03-11T02:01:04.877Z,21.67
2019-03-11T02:03:34.497Z,23.37
2019-03-11T02:06:04.147Z,28.20
2019-03-11T02:08:33.741Z,26.77
2019-03-11T02:11:03.390Z,27.20
2019-03-11T02:13:33.000Z,26.53
2019-03-11T02:16:02.650Z,22.33
2019-03-11T02:18:32.291Z,26.33
2019-03-11T02:21:01.874Z,23.77
2019-03-11T02:23:31.561Z,21.07
2019-03-11T02:26:01.240Z,17.30
2019-03-11T02:28:30.890Z,19.80
2019-03-11T02:31:00.529Z,14.20
2019-03-11T02:33:30.148Z,12.37
2019-03-11T02:35:59.761Z,11.87
2019-03-11T02:38:29.348Z,10.17
2019-03-11T02:40:59.024Z,10.23
2019-03-11T02:43:28.639Z,11.10
2019-03-11T02:45:58.229Z,8.93
2019-03-11T02:48:27.842Z,8.93
2019-03-11T02:50:57.453Z,9.00
2019-03-11T02:53:27.039Z,7.73
2019-03-11T02:55:56.677Z,7.90
2019-03-11T02:58:26.237Z,6.47
2019-03-11T03:01:15.374Z,7.73
2019-03-11T03:03:50.493Z,7.50
2019-03-11T03:06:20.140Z,8.10
2019-03-11T03:08:49.704Z,6.20
2019-03-11T03:11:19.306Z,5.87
2019-03-11T03:13:48.905Z,6.20
2019-03-11T03:16:18.506Z,5.77
2019-03-11T03:18:48.138Z,7.60
2019-03-11T03:21:17.701Z,6.23
2019-03-11T03:23:47.269Z,7.83
2019-03-11T03:26:16.892Z,6.80
2019-03-11T03:28:46.483Z,5.80
2019-03-11T03:31:16.121Z,7.07
2019-03-11T03:33:45.741Z,5.27
2019-03-11T03:36:15.348Z,6.10
2019-03-11T03:38:44.949Z,6.20
2019-03-11T03:41:14.486Z,6.90
2019-03-11T03:43:44.158Z,4.97
2019-03-11T03:46:19.356Z,7.53
2019-03-11T03:48:45.354Z,4.60
2019-03-11T03:51:15.012Z,6.43
2019-03-11T03:53:44.628Z,5.07
2019-03-11T03:56:14.268Z,6.67
2019-03-11T03:58:43.881Z,5.40
2019-03-11T04:01:13.469Z,6.50
2019-03-11T04:03:43.094Z,5.47
2019-03-11T04:06:12.684Z,7.03
2019-03-11T04:08:42.321Z,7.13
2019-03-11T04:11:11.929Z,4.87
2019-03-11T04:13:41.502Z,8.93
2019-03-11T04:16:11.194Z,5.43
2019-03-11T04:18:54.693Z,6.50
2019-03-11T04:21:24.437Z,5.67
2019-03-11T04:23:53.988Z,4.87
2019-03-11T04:26:32.382Z,5.57
2019-03-11T04:29:02.112Z,5.03
2019-03-11T04:31:31.728Z,5.27
2019-03-11T04:34:01.326Z,6.83
2019-03-11T04:36:30.931Z,6.10
2019-03-11T04:39:00.566Z,5.07
2019-03-11T04:41:30.189Z,6.80
2019-03-11T04:43:59.775Z,5.20
2019-03-11T04:46:29.418Z,4.33
2019-03-11T04:48:58.983Z,4.87
2019-03-11T04:51:28.620Z,6.33
2019-03-11T04:53:58.213Z,5.00
2019-03-11T04:56:27.807Z,4.50
2019-03-11T04:59:10.165Z,7.07
2019-03-11T05:01:39.752Z,8.27
2019-03-11T05:04:09.382Z,4.53
2019-03-11T05:06:39.030Z,5.53
2019-03-11T05:09:08.817Z,4.50
2019-03-11T05:11:38.446Z,6.27
2019-03-11T05:14:08.010Z,5.37
2019-03-11T05:16:37.633Z,5.40
2019-03-11T05:19:07.215Z,5.93
2019-03-11T05:21:36.838Z,6.90
2019-03-11T05:24:06.440Z,7.47
2019-03-11T05:26:36.069Z,5.20
2019-03-11T05:29:05.716Z,5.67
2019-03-11T05:31:35.303Z,7.20
2019-03-11T05:34:05.078Z,4.37
2019-03-11T05:36:34.674Z,7.00
2019-03-11T05:39:05.137Z,6.13
2019-03-11T05:41:34.772Z,6.20
2019-03-11T05:44:04.530Z,8.20
2019-03-11T05:46:34.151Z,4.97
2019-03-11T05:49:03.776Z,4.90
2019-03-11T05:51:33.347Z,6.80
2019-03-11T05:54:02.946Z,7.30
2019-03-11T05:56:32.536Z,5.63
2019-03-11T05:59:02.137Z,7.37
2019-03-11T06:01:31.712Z,6.37
2019-03-11T06:04:01.279Z,6.97
2019-03-11T06:06:30.985Z,6.77
2019-03-11T06:09:00.583Z,4.70
2019-03-11T06:11:30.168Z,4.63
2019-03-11T06:13:59.741Z,8.50
2019-03-11T06:16:29.351Z,7.73
2019-03-11T06:18:58.990Z,7.60
2019-03-11T06:21:56.416Z,5.83
2019-03-11T06:24:26.096Z,7.53
2019-03-11T06:26:55.660Z,4.90
2019-03-11T06:29:30.362Z,5.53
2019-03-11T06:31:56.586Z,6.30
2019-03-11T06:34:26.266Z,5.07
2019-03-11T06:36:55.974Z,5.90
2019-03-11T06:39:25.582Z,5.00
2019-03-11T06:41:55.191Z,6.77
2019-03-11T06:44:24.814Z,5.63
2019-03-11T06:46:54.392Z,6.67
2019-03-11T06:49:24.106Z,9.40
2019-03-11T06:51:53.763Z,12.03
2019-03-11T06:54:23.330Z,15.50
2019-03-11T06:56:52.915Z,8.03
2019-03-11T06:59:22.490Z,5.87
2019-03-11T07:01:52.169Z,6.27
2019-03-11T07:04:21.797Z,4.40
2019-03-11T07:06:51.358Z,6.20
2019-03-11T07:09:21.022Z,5.60
2019-03-11T07:11:50.736Z,4.90
2019-03-11T07:14:20.379Z,4.07
2019-03-11T07:16:49.952Z,6.73
2019-03-11T07:19:19.575Z,3.23
2019-03-11T07:21:49.173Z,5.13
2019-03-11T07:24:18.803Z,4.20
2019-03-11T07:26:48.455Z,4.23
2019-03-11T07:29:18.041Z,4.60
2019-03-11T07:31:47.626Z,3.40
2019-03-11T07:34:17.208Z,3.13
2019-03-11T07:36:46.809Z,3.90
2019-03-11T07:39:16.464Z,5.17
2019-03-11T07:41:46.066Z,5.07
2019-03-11T07:44:15.707Z,4.27
2019-03-11T07:46:45.737Z,4.77
2019-03-11T07:49:15.462Z,4.77
2019-03-11T07:51:45.103Z,2.83
2019-03-11T07:54:14.670Z,8.57
2019-03-11T07:56:44.239Z,4.90
2019-03-11T07:59:13.863Z,6.67
2019-03-11T08:01:43.490Z,3.87
2019-03-11T08:04:13.152Z,4.03
2019-03-11T08:06:42.740Z,4.63
2019-03-11T08:09:12.378Z,6.03
2019-03-11T08:11:41.959Z,5.30
2019-03-11T08:14:11.552Z,3.37
2019-03-11T08:16:41.222Z,4.73
2019-03-11T08:19:10.868Z,4.53
2019-03-11T08:21:40.444Z,6.77
2019-03-11T08:24:10.069Z,9.87
2019-03-11T08:26:39.691Z,17.33
2019-03-11T08:29:09.327Z,9.27
2019-03-11T08:31:38.938Z,6.60
2019-03-11T08:34:08.514Z,3.77
2019-03-11T08:36:38.102Z,5.33
2019-03-11T08:39:09.695Z,2.77
2019-03-11T08:41:39.302Z,4.67
2019-03-11T08:44:08.927Z,4.23
2019-03-11T08:46:38.581Z,3.10
2019-03-11T08:49:08.173Z,4.43
2019-03-11T08:51:37.760Z,3.97
2019-03-11T08:54:07.311Z,5.63
2019-03-11T08:56:36.918Z,4.03
2019-03-11T08:59:06.603Z,6.20
2019-03-11T09:01:36.188Z,4.93
2019-03-11T09:04:05.933Z,3.90
2019-03-11T09:06:35.523Z,2.93
2019-03-11T09:09:07.231Z,5.93
2019-03-11T09:11:36.869Z,4.20
2019-03-11T09:14:06.658Z,7.07
2019-03-11T09:16:36.244Z,4.03
2019-03-11T09:19:05.842Z,3.77
2019-03-11T09:21:35.557Z,4.17
2019-03-11T09:24:05.141Z,3.37
2019-03-11T09:26:34.747Z,5.17
2019-03-11T09:29:04.404Z,3.13
2019-03-11T09:31:33.999Z,6.77
2019-03-11T09:34:03.639Z,5.07
2019-03-11T09:36:33.337Z,3.53
2019-03-11T09:39:03.232Z,3.87
2019-03-11T09:41:32.795Z,3.97
2019-03-11T09:44:02.426Z,5.07
2019-03-11T09:46:32.035Z,2.80
2019-03-11T09:49:01.613Z,5.33
2019-03-11T09:51:31.170Z,2.70
2019-03-11T09:54:00.843Z,3.30
2019-03-11T09:56:30.490Z,3.53
2019-03-11T09:59:00.114Z,4.10
2019-03-11T10:01:29.793Z,3.70
2019-03-11T10:03:59.425Z,4.13
2019-03-11T10:06:29.112Z,3.83
2019-03-11T10:08:58.689Z,3.37
2019-03-11T10:11:28.384Z,3.57
2019-03-11T10:13:58.089Z,5.47
2019-03-11T10:16:27.798Z,2.57
2019-03-11T10:18:57.371Z,3.23
2019-03-11T10:21:26.967Z,3.83
2019-03-11T10:23:59.121Z,6.37
2019-03-11T10:26:27.978Z,2.83
2019-03-11T10:28:57.701Z,3.37
2019-03-11T10:31:27.275Z,4.27
2019-03-11T10:33:56.916Z,5.40
2019-03-11T10:36:26.493Z,4.10
2019-03-11T10:38:56.169Z,4.57
2019-03-11T10:41:25.787Z,3.63
2019-03-11T10:43:55.461Z,4.60
2019-03-11T10:46:25.144Z,4.50
2019-03-11T10:48:54.713Z,4.60
2019-03-11T10:51:24.354Z,5.33
2019-03-11T10:53:54.007Z,3.60
2019-03-11T10:56:23.556Z,2.33
2019-03-11T10:58:53.156Z,2.87
2019-03-11T11:01:23.135Z,2.60
2019-03-11T11:03:52.777Z,3.60
2019-03-11T11:06:22.359Z,2.87
2019-03-11T11:08:52.011Z,2.73
2019-03-11T11:11:21.651Z,3.90
2019-03-11T11:13:51.354Z,3.57
2019-03-11T11:16:20.928Z,4.17
2019-03-11T11:18:50.513Z,3.53
2019-03-11T11:21:20.130Z,3.87
2019-03-11T11:23:49.710Z,3.33
2019-03-11T11:26:19.333Z,2.83
2019-03-11T11:28:48.918Z,3.90
2019-03-11T11:31:18.486Z,2.10
2019-03-11T11:33:48.109Z,4.00
2019-03-11T11:36:17.704Z,3.67
2019-03-11T11:38:47.289Z,2.80
2019-03-11T11:41:16.882Z,5.47
2019-03-11T11:43:46.509Z,2.57
2019-03-11T11:46:16.127Z,3.53
2019-03-11T11:48:45.718Z,2.37
2019-03-11T11:51:15.352Z,3.10
2019-03-11T11:53:44.951Z,2.50
2019-03-11T11:56:14.584Z,3.80
2019-03-11T11:58:44.233Z,2.70
2019-03-11T12:01:13.827Z,3.30
2019-03-11T12:03:43.466Z,3.27
2019-03-11T12:06:13.038Z,2.67
2019-03-11T12:08:42.675Z,4.60
2019-03-11T12:11:12.364Z,3.53
2019-03-11T12:13:41.911Z,2.93
2019-03-11T12:16:11.523Z,2.87
2019-03-11T12:18:41.120Z,5.80
2019-03-11T12:21:10.731Z,2.90
2019-03-11T12:23:46.224Z,3.27
2019-03-11T12:26:11.656Z,2.40
2019-03-11T12:28:41.298Z,3.00
2019-03-11T12:31:10.905Z,3.20
2019-03-11T12:33:40.620Z,3.87
2019-03-11T12:36:10.237Z,6.20
2019-03-11T12:38:39.828Z,3.60
2019-03-11T12:41:09.495Z,4.40
2019-03-11T12:43:39.079Z,2.70
2019-03-11T12:46:08.676Z,3.23
2019-03-11T12:48:38.248Z,4.80
2019-03-11T12:51:07.843Z,6.97
2019-03-11T12:53:37.522Z,2.40
2019-03-11T12:56:07.183Z,5.90
2019-03-11T12:58:41.511Z,3.63
2019-03-11T13:01:08.153Z,3.17
2019-03-11T13:03:37.754Z,2.40
2019-03-11T13:06:07.498Z,4.83
2019-03-11T13:08:37.065Z,4.23
2019-03-11T13:11:06.653Z,4.50
2019-03-11T13:13:36.242Z,2.70
2019-03-11T13:16:05.925Z,4.13
2019-03-11T13:18:43.382Z,2.67
2019-03-11T13:21:16.609Z,7.33
2019-03-11T13:23:46.205Z,2.93
2019-03-11T13:26:15.823Z,3.33
2019-03-11T13:28:45.409Z,4.27
2019-03-11T13:31:15.064Z,3.33
2019-03-11T13:33:44.684Z,6.13
2019-03-11T13:36:14.295Z,3.03
2019-03-11T13:38:43.947Z,4.30
2019-03-11T13:41:13.548Z,4.87
2019-03-11T13:43:43.296Z,6.00
2019-03-11T13:46:12.915Z,4.70
2019-03-11T13:48:42.543Z,5.87
2019-03-11T13:51:12.113Z,4.63
2019-03-11T13:53:41.704Z,4.07
2019-03-11T13:56:11.367Z,4.67
2019-03-11T13:58:41.049Z,4.43
2019-03-11T14:01:10.780Z,6.53
2019-03-11T14:03:40.430Z,4.83
2019-03-11T14:06:10.078Z,4.23
2019-03-11T14:08:39.706Z,4.63
2019-03-11T14:11:09.431Z,2.93
2019-03-11T14:13:39.042Z,3.03
2019-03-11T14:16:08.626Z,5.97
2019-03-11T14:18:38.222Z,6.03
2019-03-11T14:21:07.941Z,4.27
2019-03-11T14:23:37.553Z,3.60
2019-03-11T14:26:07.131Z,2.73
2019-03-11T14:28:36.753Z,7.00
2019-03-11T14:31:06.464Z,4.27
2019-03-11T14:33:36.041Z,5.23
2019-03-11T14:36:05.644Z,5.27
2019-03-11T14:38:35.296Z,6.60
2019-03-11T14:41:04.977Z,4.63
2019-03-11T14:43:34.584Z,7.43
2019-03-11T14:46:04.258Z,9.20
2019-03-11T14:48:33.874Z,4.60
2019-03-11T14:51:03.665Z,8.07
2019-03-11T14:53:33.276Z,5.23
2019-03-11T14:56:02.852Z,4.97
2019-03-11T14:58:32.444Z,5.07
2019-03-11T15:01:02.029Z,5.00
2019-03-11T15:03:31.655Z,5.87
2019-03-11T15:06:01.239Z,5.57
2019-03-11T15:08:30.889Z,6.97
2019-03-11T15:11:00.479Z,7.43
2019-03-11T15:13:30.046Z,3.23
2019-03-11T15:15:59.657Z,7.00
2019-03-11T15:18:29.246Z,6.20
2019-03-11T15:20:58.877Z,4.63
2019-03-11T15:23:28.490Z,4.60
2019-03-11T15:25:58.091Z,3.80
2019-03-11T15:28:27.667Z,4.40
2019-03-11T15:30:57.266Z,6.43
2019-03-11T15:33:26.870Z,5.00
2019-03-11T15:35:56.478Z,4.63
2019-03-11T15:38:26.085Z,7.00
2019-03-11T15:40:55.710Z,7.53
2019-03-11T15:43:25.310Z,7.27
2019-03-11T15:45:55.229Z,6.17
2019-03-11T15:48:24.825Z,8.23
2019-03-11T15:50:54.529Z,5.20
2019-03-11T15:53:24.180Z,6.37
2019-03-11T15:55:53.779Z,5.33
2019-03-11T15:58:23.460Z,8.57
2019-03-11T16:00:53.175Z,7.20
2019-03-11T16:03:22.769Z,7.10
2019-03-11T16:05:52.339Z,7.60
2019-03-11T16:08:21.981Z,6.30
2019-03-11T16:10:51.701Z,7.17
2019-03-11T16:13:21.279Z,8.37
2019-03-11T16:15:50.909Z,9.47
2019-03-11T16:18:20.516Z,8.10
2019-03-11T16:20:50.105Z,11.83
2019-03-11T16:23:19.859Z,10.07
2019-03-11T16:25:49.540Z,10.90
2019-03-11T16:28:19.148Z,9.73
2019-03-11T16:30:48.740Z,11.03
2019-03-11T16:33:18.341Z,10.63
2019-03-11T16:35:47.990Z,10.43
2019-03-11T16:38:17.588Z,8.30
2019-03-11T16:40:47.162Z,9.17
2019-03-11T16:43:16.778Z,8.07
2019-03-11T16:45:46.462Z,7.73
2019-03-11T16:48:16.098Z,5.70
2019-03-11T16:50:45.676Z,5.53
2019-03-11T16:53:15.278Z,6.03
2019-03-11T16:55:45.608Z,7.23
2019-03-11T16:58:15.189Z,5.63
2019-03-11T17:00:45.170Z,6.50
2019-03-11T17:03:14.954Z,3.90
2019-03-11T17:05:44.632Z,4.30
2019-03-11T17:08:14.192Z,4.33
2019-03-11T17:10:43.824Z,6.60
2019-03-11T17:13:13.402Z,3.77
2019-03-11T17:15:43.040Z,5.53
2019-03-11T17:18:12.700Z,4.30
2019-03-11T17:20:42.314Z,3.83
2019-03-11T17:23:11.919Z,4.60
2019-03-11T17:25:41.519Z,3.40
2019-03-11T17:28:11.091Z,5.53
2019-03-11T17:30:40.680Z,4.00
2019-03-11T17:33:10.416Z,16.17
2019-03-11T17:35:40.034Z,21.50
2019-03-11T17:38:09.665Z,22.70
2019-03-11T17:40:39.281Z,16.07
2019-03-11T17:43:08.932Z,11.87
2019-03-11T17:45:38.480Z,10.30
2019-03-11T17:48:08.218Z,7.80
2019-03-11T17:50:37.792Z,6.87
2019-03-11T17:53:07.568Z,6.60
2019-03-11T17:55:37.212Z,7.47
2019-03-11T17:58:06.822Z,8.30
2019-03-11T18:00:36.812Z,7.97
2019-03-11T18:03:06.671Z,7.37
2019-03-11T18:05:36.268Z,5.47
2019-03-11T18:08:06.006Z,7.80
2019-03-11T18:10:35.601Z,6.90
2019-03-11T18:13:05.285Z,6.47
2019-03-11T18:15:34.895Z,8.33
2019-03-11T18:18:04.666Z,7.53
2019-03-11T18:20:34.291Z,6.80
2019-03-11T18:23:03.914Z,5.43
2019-03-11T18:25:36.576Z,8.37
2019-03-11T18:28:06.293Z,6.23
2019-03-11T18:30:36.348Z,5.37
2019-03-11T18:33:06.070Z,4.93
2019-03-11T18:35:35.651Z,5.03
2019-03-11T18:38:05.325Z,7.40
2019-03-11T18:40:35.032Z,6.30
2019-03-11T18:43:04.696Z,6.80
2019-03-11T18:45:34.626Z,7.70
2019-03-11T18:48:04.391Z,11.17
2019-03-11T18:50:34.096Z,9.87
2019-03-11T18:53:03.743Z,5.73
2019-03-11T18:55:33.389Z,6.80
2019-03-11T18:58:03.067Z,5.40
2019-03-11T19:00:32.768Z,4.67
2019-03-11T19:03:02.990Z,5.77
2019-03-11T19:05:32.640Z,5.37
2019-03-11T19:08:02.239Z,8.53
2019-03-11T19:10:31.802Z,5.80
2019-03-11T19:13:01.416Z,7.80
2019-03-11T19:15:31.152Z,10.03
2019-03-11T19:18:00.909Z,12.00
2019-03-11T19:20:30.505Z,13.07
2019-03-11T19:23:00.085Z,12.23
2019-03-11T19:25:29.677Z,12.73
2019-03-11T19:27:59.313Z,13.00
2019-03-11T19:30:28.948Z,11.80
2019-03-11T19:32:58.633Z,8.90
2019-03-11T19:35:28.277Z,8.93
2019-03-11T19:37:57.976Z,44.37
2019-03-11T19:40:27.721Z,26.23
2019-03-11T19:42:57.545Z,14.13
2019-03-11T19:45:27.223Z,11.30
2019-03-11T19:47:56.857Z,12.87
2019-03-11T19:50:26.527Z,16.23
2019-03-11T19:52:59.125Z,23.20
2019-03-11T19:55:27.528Z,20.70
2019-03-11T19:57:57.313Z,23.57
2019-03-11T20:00:27.053Z,27.33
2019-03-11T20:02:57.241Z,22.60
2019-03-11T20:05:26.921Z,18.53
2019-03-11T20:07:56.660Z,17.40
2019-03-11T20:10:26.726Z,90.87
2019-03-11T20:12:56.362Z,75.33
2019-03-11T20:15:26.008Z,46.97
2019-03-11T20:17:55.652Z,28.73
2019-03-11T20:20:25.358Z,15.10
2019-03-11T20:22:55.158Z,10.43
2019-03-11T20:25:26.404Z,10.20
2019-03-11T20:27:56.028Z,13.27
2019-03-11T20:30:25.798Z,12.67
2019-03-11T20:32:55.434Z,11.17
2019-03-11T20:35:25.171Z,9.83
2019-03-11T20:37:54.878Z,10.10
2019-03-11T20:40:24.567Z,8.83
2019-03-11T20:42:54.284Z,9.43
2019-03-11T20:45:23.862Z,9.03
2019-03-11T20:47:53.544Z,8.87
2019-03-11T20:50:23.377Z,8.00
2019-03-11T20:52:53.053Z,7.63
2019-03-11T20:55:22.788Z,10.57
2019-03-11T20:57:52.498Z,8.53
2019-03-11T21:00:22.302Z,7.73
2019-03-11T21:02:51.948Z,9.07
2019-03-11T21:05:24.356Z,11.27
2019-03-11T21:07:53.990Z,7.57
2019-03-11T21:10:23.567Z,7.63
2019-03-11T21:12:53.261Z,8.07
2019-03-11T21:15:22.927Z,7.07
2019-03-11T21:17:52.629Z,7.80
2019-03-11T21:20:22.527Z,7.77
2019-03-11T21:22:52.193Z,6.83
2019-03-11T21:25:21.834Z,7.97
2019-03-11T21:27:52.171Z,6.30
2019-03-11T21:30:21.864Z,8.50
2019-03-11T21:32:51.813Z,7.13
2019-03-11T21:35:21.689Z,5.70
2019-03-11T21:37:51.422Z,7.07
2019-03-11T21:40:21.289Z,7.03
2019-03-11T21:42:51.100Z,6.67
2019-03-11T21:45:32.935Z,5.10
2019-03-11T21:47:52.369Z,7.63
2019-03-11T21:50:22.536Z,6.13
2019-03-11T21:52:52.285Z,5.60
2019-03-11T21:55:22.495Z,6.37
2019-03-11T21:57:52.082Z,6.70
2019-03-11T22:00:32.829Z,7.10
2019-03-11T22:02:54.446Z,8.37
2019-03-11T22:05:24.157Z,8.03
2019-03-11T22:07:53.798Z,6.33
2019-03-11T22:10:23.407Z,5.87
2019-03-11T22:12:53.004Z,8.03
2019-03-11T22:15:22.662Z,5.70
2019-03-11T22:17:52.316Z,6.33
2019-03-11T22:20:22.155Z,7.37
2019-03-11T22:22:51.819Z,7.50
2019-03-11T22:25:21.515Z,6.67
2019-03-11T22:27:51.234Z,5.43
2019-03-11T22:30:23.329Z,5.57
2019-03-11T22:32:52.966Z,5.87
2019-03-11T22:35:22.589Z,6.10
2019-03-11T22:37:52.211Z,6.63
2019-03-11T22:40:22.083Z,6.77
2019-03-11T22:42:51.664Z,7.43
2019-03-11T22:45:21.433Z,5.60
2019-03-11T22:47:51.326Z,6.53
2019-03-11T22:50:21.294Z,5.97
2019-03-11T22:52:51.128Z,10.53
2019-03-11T22:55:21.120Z,7.63
2019-03-11T22:57:50.745Z,9.40
2019-03-11T23:01:00.071Z,8.93
2019-03-11T23:03:29.801Z,8.73
2019-03-11T23:05:59.435Z,9.87
2019-03-11T23:08:29.078Z,7.07
2019-03-11T23:10:58.655Z,8.07
2019-03-11T23:13:28.370Z,8.30
2019-03-11T23:15:58.002Z,7.40
2019-03-11T23:18:27.708Z,6.83
2019-03-11T23:20:57.268Z,8.93
2019-03-11T23:23:26.890Z,7.00
2019-03-11T23:25:56.546Z,7.00
2019-03-11T23:28:26.182Z,8.23
2019-03-11T23:30:55.804Z,9.37
2019-03-11T23:33:25.438Z,7.80
2019-03-11T23:35:55.074Z,7.63
2019-03-11T23:38:24.752Z,7.50
2019-03-11T23:40:54.346Z,7.27
2019-03-11T23:43:24.019Z,5.87
2019-03-11T23:45:53.708Z,5.70
2019-03-11T23:48:23.300Z,6.20
2019-03-11T23:50:52.874Z,6.67
2019-03-11T23:53:22.539Z,7.10
2019-03-11T23:55:52.181Z,6.03
2019-03-11T23:58:21.894Z,7.83
